Time;durP1;ratioP1;P1;durP2;ratioP2;P2;SDS_P1;SDS_P2;PMS_P1;PMS_P2;Temp;Humidity;BMP_temperature;BMP_pressure;BME280_temperature;BME280_humidity;BME280_pressure;Samples;Min_cycle;Max_cycle;Signal;HPM_P1;HPM_P2
2022/01/02 00:02:27;;;;;;;24.35;13.98;;;5.20;99.90;;;;;;5085100;28;20265;-78
2022/01/02 00:05:06;;;;;;;24.17;13.27;;;5.20;99.90;;;;;;5086235;28;20119;-77
2022/01/02 00:07:45;;;;;;;24.17;13.10;;;5.20;99.90;;;;;;5104114;28;20040;-77
2022/01/02 00:10:12;;;;;;;21.85;12.75;;;5.20;99.90;;;;;;5085057;28;20032;-78
2022/01/02 00:12:48;;;;;;;21.98;11.35;;;5.20;99.90;;;;;;5103775;28;20032;-78
2022/01/02 00:15:18;;;;;;;25.40;14.52;;;5.10;99.90;;;;;;5083648;28;20036;-77
2022/01/02 00:17:45;;;;;;;27.02;14.93;;;5.10;99.90;;;;;;5103599;28;20337;-78
2022/01/02 00:20:13;;;;;;;26.23;14.73;;;5.10;99.90;;;;;;5102885;28;20032;-77
2022/01/02 00:22:41;;;;;;;27.10;14.30;;;5.10;99.90;;;;;;5068478;28;20211;-78
2022/01/02 00:25:22;;;;;;;26.63;14.70;;;5.10;99.90;;;;;;5103105;28;20044;-77
2022/01/02 00:27:50;;;;;;;24.40;13.10;;;5.10;99.90;;;;;;5103086;28;20062;-76
2022/01/02 00:30:16;;;;;;;23.67;14.33;;;5.10;99.90;;;;;;5102189;28;20031;-78
2022/01/02 00:32:44;;;;;;;23.10;13.70;;;5.10;99.90;;;;;;5085411;28;20245;-77
2022/01/02 00:35:10;;;;;;;22.90;13.18;;;5.20;99.90;;;;;;5084465;28;20251;-77
2022/01/02 00:37:36;;;;;;;22.75;12.27;;;5.30;99.90;;;;;;5103594;28;20055;-76
2022/01/02 00:40:03;;;;;;;21.48;12.38;;;5.20;99.90;;;;;;5103035;28;20016;-77
2022/01/02 00:42:34;;;;;;;22.35;12.63;;;5.20;99.90;;;;;;5102674;28;20027;-75
2022/01/02 00:45:24;;;;;;;23.40;12.70;;;5.20;99.90;;;;;;5102916;28;20299;-77
2022/01/02 00:47:59;;;;;;;19.73;11.43;;;5.20;99.90;;;;;;5064547;28;20230;-77
2022/01/02 00:50:33;;;;;;;22.75;12.20;;;5.10;99.90;;;;;;5082063;28;20063;-77
2022/01/02 00:53:00;;;;;;;21.65;11.77;;;5.20;99.90;;;;;;5082640;28;20365;-77
2022/01/02 00:55:26;;;;;;;21.05;11.50;;;5.10;99.90;;;;;;5082136;28;20036;-77
2022/01/02 00:57:59;;;;;;;19.90;11.13;;;5.10;99.90;;;;;;5086435;28;20027;-77
2022/01/02 01:00:28;;;;;;;20.52;11.68;;;5.00;99.90;;;;;;5079952;28;20032;-77
2022/01/02 01:03:00;;;;;;;19.45;11.18;;;5.00;99.90;;;;;;5081087;28;20096;-77
2022/01/02 01:05:32;;;;;;;19.15;10.63;;;4.90;99.90;;;;;;5079894;28;20028;-76
2022/01/02 01:08:04;;;;;;;18.95;10.93;;;4.90;99.90;;;;;;5080468;28;20036;-76
2022/01/02 01:10:33;;;;;;;19.40;11.30;;;4.90;99.90;;;;;;5062531;28;20043;-78
2022/01/02 01:13:02;;;;;;;18.98;10.90;;;4.90;99.90;;;;;;5080633;28;20204;-76
2022/01/02 01:15:30;;;;;;;22.23;11.40;;;5.00;99.90;;;;;;5081335;28;20036;-77
2022/01/02 01:17:58;;;;;;;20.13;11.75;;;4.90;99.90;;;;;;5083033;28;20206;-77
2022/01/02 01:20:27;;;;;;;18.05;11.45;;;4.90;99.90;;;;;;5100103;28;20047;-77
2022/01/02 01:22:53;;;;;;;21.95;11.90;;;4.90;99.90;;;;;;5101272;28;20032;-75
2022/01/02 01:25:20;;;;;;;19.73;12.07;;;4.90;99.90;;;;;;5083904;28;20335;-78
2022/01/02 01:27:47;;;;;;;20.00;12.05;;;4.90;99.90;;;;;;5084314;28;20047;-77
2022/01/02 01:30:15;;;;;;;20.17;11.07;;;4.90;99.90;;;;;;5084049;28;20024;-77
2022/01/02 01:32:42;;;;;;;25.35;13.30;;;4.80;99.90;;;;;;5102686;28;20039;-77
2022/01/02 01:35:08;;;;;;;24.80;13.05;;;4.70;99.90;;;;;;5102336;28;20024;-76
2022/01/02 01:37:34;;;;;;;20.77;10.63;;;4.60;99.90;;;;;;5102724;28;20063;-77
2022/01/02 01:40:01;;;;;;;19.70;10.57;;;4.60;99.90;;;;;;5084692;28;20032;-77
2022/01/02 01:42:37;;;;;;;17.07;10.23;;;4.60;99.90;;;;;;5084156;28;20061;-77
2022/01/02 01:47:46;;;;;;;20.77;11.20;;;4.50;99.90;;;;;;5084352;28;20044;-77
2022/01/02 01:50:12;;;;;;;24.45;12.90;;;4.50;99.90;;;;;;5083969;28;20032;-77
2022/01/02 01:52:38;;;;;;;21.98;12.50;;;4.50;99.90;;;;;;5084250;28;20287;-78
2022/01/02 01:55:05;;;;;;;20.65;11.77;;;4.40;99.90;;;;;;5084156;28;20103;-77
2022/01/02 01:57:32;;;;;;;18.75;11.63;;;4.30;99.90;;;;;;5083636;28;20032;-78
2022/01/02 01:59:58;;;;;;;19.15;11.13;;;4.20;99.90;;;;;;5067575;28;20345;-77
2022/01/02 02:02:25;;;;;;;18.10;10.02;;;4.20;99.90;;;;;;5083486;28;20302;-77
2022/01/02 02:04:50;;;;;;;17.70;9.32;;;4.20;99.90;;;;;;5084378;28;20322;-77
2022/01/02 02:07:27;;;;;;;19.52;10.70;;;4.20;99.90;;;;;;5067325;28;20024;-77
2022/01/02 02:10:11;;;;;;;21.55;11.23;;;4.30;99.90;;;;;;5084184;28;20274;-77
2022/01/02 02:12:41;;;;;;;17.08;11.07;;;4.30;99.90;;;;;;5084015;28;20329;-77
2022/01/02 02:15:08;;;;;;;;;;;4.30;99.90;;;;;;5068030;28;20024;-78
2022/01/02 02:17:35;;;;;;;21.83;11.50;;;4.40;99.90;;;;;;5065242;28;19912;-78
2022/01/02 02:20:31;;;;;;;23.65;11.45;;;4.50;99.90;;;;;;5081919;28;20020;-77
2022/01/02 02:23:00;;;;;;;17.52;10.52;;;4.60;99.90;;;;;;5045811;28;20368;-77
2022/01/02 02:26:04;;;;;;;18.38;11.55;;;4.70;99.90;;;;;;5051935;28;20415;-77
2022/01/02 02:29:08;;;;;;;21.00;12.35;;;4.80;99.90;;;;;;5043068;28;20037;-77
2022/01/02 02:32:12;;;;;;;18.33;11.73;;;4.90;99.90;;;;;;5043459;28;20025;-77
2022/01/02 02:35:16;;;;;;;18.95;11.75;;;4.90;99.90;;;;;;5044155;28;20039;-77
2022/01/02 02:38:22;;;;;;;19.92;10.52;;;4.90;99.90;;;;;;5043794;28;20315;-77
2022/01/02 02:41:34;;;;;;;18.80;11.10;;;4.80;99.90;;;;;;5047356;28;20039;-78
2022/01/02 02:44:40;;;;;;;17.20;10.18;;;4.80;99.90;;;;;;5065311;28;20142;-77
2022/01/02 02:51:07;;;;;;;17.92;11.07;;;4.70;99.90;;;;;;5046933;28;20053;-77
2022/01/02 02:54:11;;;;;;;17.98;10.60;;;4.70;99.90;;;;;;5046586;28;20109;-77
2022/01/02 02:57:18;;;;;;;16.25;10.38;;;4.70;99.90;;;;;;5046560;28;20112;-77
2022/01/02 03:00:21;;;;;;;14.93;9.85;;;4.80;99.90;;;;;;5047160;28;20029;-77
2022/01/02 03:03:25;;;;;;;16.58;10.50;;;4.90;99.90;;;;;;5047155;28;20045;-76
2022/01/02 03:06:28;;;;;;;17.50;10.35;;;4.90;99.90;;;;;;5064784;28;20264;-76
2022/01/02 03:09:39;;;;;;;16.55;10.77;;;4.90;99.90;;;;;;5046733;28;20110;-77
2022/01/02 03:12:44;;;;;;;17.52;10.15;;;4.80;99.90;;;;;;5046746;28;20025;-76
2022/01/02 03:15:47;;;;;;;13.25;9.65;;;4.80;99.90;;;;;;5064317;28;20308;-75
2022/01/02 03:18:13;;;;;;;18.55;10.02;;;4.80;99.90;;;;;;5064676;28;20040;-77
2022/01/02 03:20:39;;;;;;;15.20;10.02;;;4.80;99.90;;;;;;5064223;28;20211;-77
2022/01/02 03:23:05;;;;;;;14.95;9.43;;;4.80;99.90;;;;;;5064450;28;20021;-77
2022/01/02 03:25:30;;;;;;;15.55;9.40;;;4.70;99.90;;;;;;5070688;28;20283;-76
2022/01/02 03:27:57;;;;;;;15.98;9.55;;;4.80;99.90;;;;;;5066585;28;20033;-78
2022/01/02 03:30:24;;;;;;;14.68;9.70;;;4.80;99.90;;;;;;5083747;28;20024;-78
2022/01/02 03:32:50;;;;;;;15.75;9.75;;;4.80;99.90;;;;;;5066455;28;20214;-77
2022/01/02 03:35:16;;;;;;;14.75;9.48;;;4.70;99.90;;;;;;5084144;28;20032;-79
2022/01/02 03:37:43;;;;;;;16.52;9.20;;;4.70;99.90;;;;;;5084465;28;20051;-77
2022/01/02 03:40:10;;;;;;;15.48;9.77;;;4.70;99.90;;;;;;5066132;28;20032;-76
2022/01/02 03:42:37;;;;;;;15.48;9.23;;;4.60;99.90;;;;;;5083667;28;20362;-78
2022/01/02 03:45:04;;;;;;;14.57;8.95;;;4.50;99.90;;;;;;5066174;28;20062;-77
2022/01/02 03:47:31;;;;;;;15.73;9.48;;;4.50;99.90;;;;;;5065812;28;20103;-77
2022/01/02 03:49:57;;;;;;;15.05;10.27;;;4.50;99.90;;;;;;5066036;28;20024;-78
2022/01/02 03:52:25;;;;;;;14.73;9.90;;;4.50;99.90;;;;;;5065741;28;20035;-78
2022/01/02 03:54:50;;;;;;;16.88;10.10;;;4.40;99.90;;;;;;5083911;28;20077;-78
2022/01/02 03:57:16;;;;;;;12.52;8.43;;;4.50;99.90;;;;;;5084097;28;20028;-77
2022/01/02 03:59:42;;;;;;;16.63;10.02;;;4.40;99.90;;;;;;5065684;28;20299;-77
2022/01/02 04:02:09;;;;;;;16.08;9.25;;;4.40;99.90;;;;;;5065771;28;20024;-78
2022/01/02 04:04:35;;;;;;;15.25;9.55;;;4.30;99.90;;;;;;5065561;28;20020;-78
2022/01/02 04:07:01;;;;;;;15.27;9.13;;;4.30;99.90;;;;;;5083735;28;20021;-79
2022/01/02 04:09:27;;;;;;;13.95;9.25;;;4.40;99.90;;;;;;5065287;28;20040;-79
2022/01/02 04:11:53;;;;;;;15.57;9.63;;;4.40;99.90;;;;;;5083698;28;20044;-78
2022/01/02 04:14:19;;;;;;;12.20;8.05;;;4.40;99.90;;;;;;5083191;28;20033;-80
2022/01/02 04:16:44;;;;;;;14.90;8.93;;;4.50;99.90;;;;;;5094961;28;20099;-78
2022/01/02 04:19:10;;;;;;;14.20;8.50;;;4.30;99.90;;;;;;5085966;28;20040;-78
2022/01/02 04:21:36;;;;;;;14.60;8.45;;;4.30;99.90;;;;;;5085465;28;20038;-79
2022/01/02 04:24:02;;;;;;;13.95;8.32;;;4.10;99.90;;;;;;5103871;28;20035;-79
2022/01/02 04:26:29;;;;;;;13.63;8.23;;;4.10;99.90;;;;;;5103597;28;20040;-78
2022/01/02 04:28:55;;;;;;;13.45;8.98;;;4.10;99.90;;;;;;5085543;28;20267;-78
2022/01/02 04:31:21;;;;;;;15.35;8.80;;;4.10;99.90;;;;;;5084858;28;20024;-79
2022/01/02 04:33:47;;;;;;;13.82;8.65;;;4.00;99.90;;;;;;5103226;28;20028;-79
2022/01/02 04:36:12;;;;;;;13.32;9.02;;;4.00;99.90;;;;;;5103419;28;20024;-79
2022/01/02 04:38:40;;;;;;;13.95;8.80;;;4.00;99.90;;;;;;5103148;28;20043;-77
2022/01/02 04:41:06;;;;;;;12.60;7.78;;;4.00;99.90;;;;;;5085049;28;20036;-79
2022/01/02 04:43:32;;;;;;;12.18;7.65;;;3.90;99.90;;;;;;5103045;28;20034;-78
2022/01/02 04:45:58;;;;;;;13.32;7.97;;;3.90;99.90;;;;;;5085610;28;20023;-78
2022/01/02 04:48:24;;;;;;;15.75;8.75;;;4.00;99.90;;;;;;5084676;28;20091;-78
2022/01/02 04:50:50;;;;;;;16.90;9.05;;;4.00;99.90;;;;;;5085356;28;20024;-78
2022/01/02 04:53:16;;;;;;;12.45;7.60;;;4.00;99.90;;;;;;5102916;28;20020;-77
2022/01/02 04:55:43;;;;;;;14.63;8.30;;;4.00;99.90;;;;;;5084632;28;20031;-77
2022/01/02 04:58:09;;;;;;;13.65;7.70;;;4.00;99.90;;;;;;5085008;28;20028;-78
2022/01/02 05:00:36;;;;;;;14.80;8.20;;;4.00;99.90;;;;;;5084440;28;20239;-77
2022/01/02 05:03:02;;;;;;;12.48;7.70;;;4.00;99.90;;;;;;5067619;28;20250;-78
2022/01/02 05:05:28;;;;;;;13.95;7.95;;;4.00;99.90;;;;;;5084319;28;20020;-78
2022/01/02 05:07:55;;;;;;;12.27;7.45;;;4.10;99.90;;;;;;5084908;28;20111;-78
2022/01/02 05:10:21;;;;;;;13.88;8.13;;;4.10;99.90;;;;;;5084877;28;20030;-78
2022/01/02 05:12:48;;;;;;;12.98;7.90;;;4.20;99.90;;;;;;5085027;28;20016;-77
2022/01/02 05:15:16;;;;;;;11.57;7.60;;;4.20;99.90;;;;;;5085037;28;20199;-78
2022/01/02 05:17:43;;;;;;;11.85;7.30;;;4.20;99.90;;;;;;5082697;28;20052;-77
2022/01/02 05:20:09;;;;;;;14.27;7.73;;;4.20;99.90;;;;;;5082567;28;20073;-78
2022/01/02 05:22:35;;;;;;;13.95;8.23;;;4.20;99.90;;;;;;5064474;28;20221;-77
2022/01/02 05:25:02;;;;;;;12.50;7.95;;;4.30;99.90;;;;;;5048006;28;20155;-77
2022/01/02 05:27:29;;;;;;;12.43;7.20;;;4.40;99.90;;;;;;5081829;28;20028;-78
2022/01/02 05:29:55;;;;;;;11.10;7.18;;;4.50;99.90;;;;;;5064415;28;20069;-78
2022/01/02 05:32:21;;;;;;;10.27;7.22;;;4.60;99.90;;;;;;5082619;28;20082;-78
2022/01/02 05:34:47;;;;;;;11.23;7.32;;;4.50;99.90;;;;;;5064085;28;20020;-77
2022/01/02 05:37:12;;;;;;;9.95;6.78;;;4.60;99.90;;;;;;5082458;28;20024;-78
2022/01/02 05:39:38;;;;;;;10.13;7.20;;;4.60;99.90;;;;;;5063914;28;20024;-78
2022/01/02 05:42:05;;;;;;;11.90;7.53;;;4.60;99.90;;;;;;5064542;28;20036;-78
2022/01/02 05:44:31;;;;;;;10.80;7.43;;;4.60;99.90;;;;;;5064226;28;20055;-78
2022/01/02 05:46:57;;;;;;;13.07;8.02;;;4.70;99.90;;;;;;5064598;28;20028;-77
2022/01/02 05:49:24;;;;;;;10.50;6.88;;;4.60;99.90;;;;;;5064335;28;20052;-78
2022/01/02 05:51:50;;;;;;;12.90;7.93;;;4.60;99.90;;;;;;5064377;28;20025;-79
2022/01/02 05:54:16;;;;;;;11.82;7.68;;;4.60;99.90;;;;;;5047811;28;20365;-77
2022/01/02 05:56:44;;;;;;;12.27;7.57;;;4.60;99.90;;;;;;5063603;28;20024;-77
2022/01/02 05:59:10;;;;;;;11.55;7.85;;;4.60;99.90;;;;;;5063881;28;20039;-77
2022/01/02 06:01:37;;;;;;;10.43;7.65;;;4.50;99.90;;;;;;5068624;28;20028;-77
2022/01/02 06:04:03;;;;;;;10.63;7.28;;;4.50;99.90;;;;;;5083827;28;20028;-79
2022/01/02 06:06:29;;;;;;;11.73;7.78;;;4.50;99.90;;;;;;5083449;28;20278;-78
2022/01/02 06:08:55;;;;;;;12.25;7.18;;;4.50;99.90;;;;;;5084410;28;20042;-78
2022/01/02 06:11:20;;;;;;;10.45;7.15;;;4.50;99.90;;;;;;5101908;28;20020;-78
2022/01/02 06:13:46;;;;;;;11.15;7.25;;;4.50;99.90;;;;;;5084697;28;20043;-78
2022/01/02 06:16:13;;;;;;;13.48;7.68;;;4.50;99.90;;;;;;5087689;28;20024;-79
2022/01/02 06:18:39;;;;;;;11.77;7.30;;;4.50;99.90;;;;;;5087620;28;20028;-78
2022/01/02 06:21:05;;;;;;;9.90;6.68;;;4.40;99.90;;;;;;5106421;28;20075;-78
2022/01/02 06:23:31;;;;;;;10.15;7.18;;;4.40;99.90;;;;;;5087730;28;20260;-78
2022/01/02 06:25:57;;;;;;;11.25;7.55;;;4.40;99.90;;;;;;5087850;28;20075;-78
2022/01/02 06:28:41;;;;;;;11.80;7.35;;;4.30;99.90;;;;;;5105430;28;20349;-78
2022/01/02 06:31:25;;;;;;;13.05;7.30;;;4.30;99.90;;;;;;5105472;28;20050;-79
2022/01/02 06:34:10;;;;;;;11.68;7.50;;;4.30;99.90;;;;;;5105705;28;20078;-76
2022/01/02 06:36:55;;;;;;;11.48;7.47;;;4.30;99.90;;;;;;5105940;28;20371;-78
2022/01/02 06:39:39;;;;;;;10.68;7.22;;;4.30;99.90;;;;;;5105280;28;20219;-78
2022/01/02 06:42:23;;;;;;;11.93;7.18;;;4.30;99.90;;;;;;5105962;28;20058;-78
2022/01/02 06:44:49;;;;;;;10.40;6.88;;;4.40;99.90;;;;;;5087345;28;20050;-78
2022/01/02 06:47:16;;;;;;;11.00;7.05;;;4.40;99.90;;;;;;5086861;28;20032;-78
2022/01/02 06:49:42;;;;;;;10.80;7.60;;;4.40;99.90;;;;;;5105489;28;20213;-79
2022/01/02 06:52:08;;;;;;;9.20;6.15;;;4.40;99.90;;;;;;5087525;28;20218;-77
2022/01/02 06:54:34;;;;;;;10.50;7.35;;;4.40;99.90;;;;;;5105075;28;20307;-77
2022/01/02 06:57:00;;;;;;;10.85;6.70;;;4.40;99.90;;;;;;5087542;28;20023;-77
2022/01/02 06:59:26;;;;;;;11.23;7.22;;;4.40;99.90;;;;;;5105606;28;20043;-77
2022/01/02 07:01:52;;;;;;;10.70;7.22;;;4.30;99.90;;;;;;5086295;28;20036;-77
2022/01/02 07:04:17;;;;;;;11.93;7.70;;;4.20;99.90;;;;;;5072204;28;20020;-77
2022/01/02 07:06:44;;;;;;;10.57;6.50;;;4.30;99.90;;;;;;5086807;28;20027;-76
2022/01/02 07:09:10;;;;;;;12.02;7.50;;;4.30;99.90;;;;;;5087180;28;20028;-77
2022/01/02 07:11:35;;;;;;;9.65;6.75;;;4.30;99.90;;;;;;5104351;28;20306;-78
2022/01/02 07:14:01;;;;;;;9.13;6.40;;;4.40;99.90;;;;;;5104676;28;20054;-77
2022/01/02 07:16:27;;;;;;;9.35;5.80;;;4.50;99.90;;;;;;5074107;28;20060;-78
2022/01/02 07:18:53;;;;;;;12.15;6.40;;;4.60;99.90;;;;;;5084295;28;20028;-77
2022/01/02 07:21:18;;;;;;;10.23;6.30;;;4.70;99.90;;;;;;5100181;28;20372;-76
2022/01/02 07:23:44;;;;;;;10.57;6.60;;;4.70;99.90;;;;;;5083978;28;20112;-78
2022/01/02 07:26:10;;;;;;;8.98;5.95;;;4.80;99.90;;;;;;5083603;28;20048;-77
2022/01/02 07:28:36;;;;;;;9.60;6.07;;;4.80;99.90;;;;;;5083893;28;20103;-77
2022/01/02 07:31:02;;;;;;;10.55;6.20;;;4.80;99.90;;;;;;5099394;28;20037;-77
2022/01/02 07:33:28;;;;;;;9.70;6.10;;;4.80;99.90;;;;;;5066527;28;20214;-78
2022/01/02 07:35:54;;;;;;;9.77;6.00;;;4.90;99.90;;;;;;5083469;28;20037;-78
2022/01/02 07:38:19;;;;;;;10.32;6.30;;;4.90;99.90;;;;;;5084133;28;20142;-78
2022/01/02 07:40:46;;;;;;;10.73;6.38;;;4.90;99.90;;;;;;5083835;28;20041;-77
2022/01/02 07:43:12;;;;;;;9.13;5.68;;;4.90;99.90;;;;;;5084143;28;20088;-77
2022/01/02 07:45:38;;;;;;;9.10;6.00;;;4.80;99.90;;;;;;5088140;28;20301;-77
2022/01/02 07:48:05;;;;;;;8.98;5.63;;;4.90;99.90;;;;;;5103885;28;20223;-79
2022/01/02 07:50:30;;;;;;;8.88;5.80;;;4.90;99.90;;;;;;5104572;28;20032;-76
2022/01/02 07:52:56;;;;;;;9.45;6.05;;;4.90;99.90;;;;;;5104078;28;20050;-77
2022/01/02 07:55:22;;;;;;;8.98;5.82;;;4.90;99.90;;;;;;5104109;28;20028;-77
2022/01/02 07:57:48;;;;;;;10.65;6.43;;;5.00;99.90;;;;;;5103339;28;20065;-77
2022/01/02 08:00:14;;;;;;;9.38;6.13;;;5.00;99.90;;;;;;5085511;28;20031;-75
2022/01/02 08:02:40;;;;;;;10.43;6.57;;;5.00;99.90;;;;;;5085618;28;20077;-77
2022/01/02 08:05:07;;;;;;;11.13;6.32;;;5.10;99.90;;;;;;5103486;28;20222;-77
2022/01/02 08:07:33;;;;;;;10.05;5.78;;;5.10;99.90;;;;;;5104192;28;20024;-77
2022/01/02 08:09:59;;;;;;;9.98;5.63;;;5.20;99.90;;;;;;5103641;28;20329;-75
2022/01/02 08:12:24;;;;;;;10.07;5.90;;;5.20;99.90;;;;;;5104039;28;20087;-78
2022/01/02 08:14:50;;;;;;;9.82;5.63;;;5.40;99.90;;;;;;5103813;28;20039;-76
2022/01/02 08:17:16;;;;;;;9.40;5.68;;;5.50;99.90;;;;;;5103211;28;20326;-77
2022/01/02 08:19:42;;;;;;;8.10;5.00;;;5.50;99.90;;;;;;5102930;28;20043;-77
2022/01/02 08:22:07;;;;;;;7.45;5.03;;;5.60;99.90;;;;;;5103779;28;20031;-77
2022/01/02 08:24:33;;;;;;;8.38;5.25;;;5.70;99.90;;;;;;5103621;28;20091;-76
2022/01/02 08:26:59;;;;;;;9.50;5.45;;;5.70;99.90;;;;;;5103855;28;20288;-76
2022/01/02 08:29:24;;;;;;;10.50;5.78;;;5.90;99.90;;;;;;5085260;28;20035;-76
2022/01/02 08:31:50;;;;;;;8.55;5.30;;;6.00;99.90;;;;;;5102455;28;20044;-77
2022/01/02 08:34:35;;;;;;;8.20;5.20;;;6.10;99.90;;;;;;5102997;28;20063;-78
2022/01/02 08:37:01;;;;;;;7.82;5.20;;;6.30;99.90;;;;;;5102870;28;20023;-76
2022/01/02 08:39:27;;;;;;;8.48;5.60;;;6.30;99.90;;;;;;5103174;28;20024;-76
2022/01/02 08:41:53;;;;;;;8.63;5.47;;;6.30;99.90;;;;;;5102892;28;20032;-77
2022/01/02 08:44:20;;;;;;;9.60;5.78;;;6.30;99.90;;;;;;5103466;28;20055;-77
2022/01/02 08:46:45;;;;;;;12.73;5.28;;;6.40;99.90;;;;;;5101879;28;20051;-76
2022/01/02 08:49:11;;;;;;;8.20;5.03;;;6.40;99.90;;;;;;5103200;28;20051;-78
2022/01/02 08:51:37;;;;;;;7.60;5.40;;;6.50;99.90;;;;;;5102554;28;20026;-77
2022/01/02 08:54:05;;;;;;;8.02;5.57;;;6.60;99.90;;;;;;5103150;28;20359;-77
2022/01/02 08:56:32;;;;;;;7.93;5.25;;;6.70;99.90;;;;;;5102947;28;20089;-80
2022/01/02 08:58:58;;;;;;;7.68;5.30;;;6.90;99.90;;;;;;5102527;28;20035;-78
2022/01/02 09:01:23;;;;;;;7.10;4.85;;;7.10;99.90;;;;;;5102475;28;20086;-78
2022/01/02 09:03:49;;;;;;;7.90;5.30;;;7.20;99.90;;;;;;5102083;28;20114;-80
2022/01/02 09:06:15;;;;;;;7.65;4.75;;;7.30;99.90;;;;;;5102687;28;20250;-77
2022/01/02 09:08:41;;;;;;;8.30;5.20;;;7.40;99.90;;;;;;5102202;28;20085;-77
2022/01/02 09:11:07;;;;;;;8.18;5.03;;;7.60;99.90;;;;;;5102742;28;20275;-77
2022/01/02 09:13:33;;;;;;;7.80;5.05;;;7.80;99.90;;;;;;5102798;28;20325;-78
2022/01/02 09:15:59;;;;;;;8.50;5.28;;;7.90;99.90;;;;;;5101743;28;20043;-77
2022/01/02 09:18:25;;;;;;;7.65;5.10;;;8.20;99.90;;;;;;5102756;28;20027;-77
2022/01/02 09:20:51;;;;;;;8.48;4.72;;;8.30;99.90;;;;;;5102272;28;20024;-77
2022/01/02 09:23:17;;;;;;;8.20;4.88;;;8.50;99.90;;;;;;5102558;28;20219;-80
2022/01/02 09:25:43;;;;;;;8.30;5.15;;;8.40;99.90;;;;;;5102191;28;20074;-78
2022/01/02 09:28:09;;;;;;;7.45;5.03;;;8.30;99.90;;;;;;5102558;28;20032;-78
2022/01/02 09:30:35;;;;;;;8.43;5.05;;;8.30;99.90;;;;;;5102024;28;20059;-78
2022/01/02 09:33:02;;;;;;;8.77;5.18;;;8.50;99.90;;;;;;5084395;28;20203;-77
2022/01/02 09:35:29;;;;;;;9.32;5.35;;;8.70;99.90;;;;;;5085220;28;20199;-78
2022/01/02 09:37:55;;;;;;;9.23;5.30;;;8.80;99.90;;;;;;5101908;28;20318;-78
2022/01/02 09:40:21;;;;;;;7.65;4.95;;;8.80;99.90;;;;;;5084383;28;20126;-78
2022/01/02 09:42:47;;;;;;;7.05;5.18;;;8.70;99.90;;;;;;5102230;28;20032;-77
2022/01/02 09:45:13;;;;;;;9.43;5.32;;;8.60;99.90;;;;;;5101579;28;20023;-78
2022/01/02 09:47:40;;;;;;;7.80;5.55;;;8.70;99.90;;;;;;5102574;28;20070;-78
2022/01/02 09:50:07;;;;;;;8.23;5.38;;;8.80;99.90;;;;;;5106582;28;20024;-77
2022/01/02 09:52:33;;;;;;;10.67;5.20;;;8.80;99.90;;;;;;5106521;28;20096;-78
2022/01/02 09:54:59;;;;;;;8.55;5.03;;;8.90;99.90;;;;;;5103267;28;20035;-79
2022/01/02 09:57:25;;;;;;;10.93;5.50;;;9.00;99.90;;;;;;5105296;28;20035;-79
2022/01/02 09:59:53;;;;;;;7.82;5.57;;;9.00;99.90;;;;;;5105783;28;20046;-79
2022/01/02 10:02:19;;;;;;;7.68;5.28;;;9.10;99.90;;;;;;5105678;28;20058;-79
2022/01/02 10:04:44;;;;;;;9.20;5.55;;;9.20;99.90;;;;;;5087295;28;20241;-78
2022/01/02 10:07:45;;;;;;;8.40;5.45;;;9.10;99.90;;;;;;5105946;28;20125;-77
2022/01/02 10:10:12;;;;;;;7.47;5.25;;;9.20;99.90;;;;;;5024005;28;20034;-78
2022/01/02 10:12:38;;;;;;;7.97;5.30;;;9.30;99.90;;;;;;5072122;28;20038;-77
2022/01/02 10:15:12;;;;;;;7.93;5.13;;;9.30;99.90;;;;;;5105318;28;20031;-78
2022/01/02 10:17:56;;;;;;;8.38;5.35;;;9.40;99.90;;;;;;5105889;28;20023;-78
2022/01/02 10:20:37;;;;;;;8.07;5.40;;;9.50;99.90;;;;;;5106472;28;20027;-78
2022/01/02 10:23:19;;;;;;;8.38;5.78;;;9.50;99.90;;;;;;5069220;28;20028;-77
2022/01/02 10:25:52;;;;;;;8.40;5.35;;;9.40;99.90;;;;;;5085198;28;20052;-77
2022/01/02 10:28:26;;;;;;;8.38;5.38;;;9.30;99.90;;;;;;5085528;28;20043;-78
2022/01/02 10:30:57;;;;;;;8.75;5.40;;;9.00;99.90;;;;;;5101992;28;20035;-77
2022/01/02 10:33:23;;;;;;;9.30;5.25;;;8.90;99.90;;;;;;5105770;28;20032;-78
2022/01/02 10:36:02;;;;;;;8.65;5.47;;;8.90;99.90;;;;;;5105562;28;20024;-77
2022/01/02 10:38:30;;;;;;;8.98;5.30;;;8.80;99.90;;;;;;5105598;28;20091;-77
2022/01/02 10:40:56;;;;;;;8.93;5.95;;;8.80;99.90;;;;;;5087311;28;20091;-77
2022/01/02 10:43:33;;;;;;;8.55;5.57;;;8.70;99.90;;;;;;5087491;28;20028;-77
2022/01/02 10:46:03;;;;;;;8.80;5.40;;;8.80;99.90;;;;;;5086381;28;20043;-77
2022/01/02 10:48:36;;;;;;;10.15;6.10;;;8.80;99.90;;;;;;5105361;28;20036;-78
2022/01/02 10:51:19;;;;;;;9.50;6.25;;;8.60;99.90;;;;;;5087290;28;20036;-78
2022/01/02 10:53:53;;;;;;;10.05;6.82;;;8.60;99.90;;;;;;5086428;28;20218;-79
2022/01/02 10:56:22;;;;;;;10.20;6.65;;;8.60;99.90;;;;;;5104924;28;20073;-77
2022/01/02 10:58:48;;;;;;;12.65;7.07;;;8.80;99.90;;;;;;5104227;28;20319;-77
2022/01/02 11:01:15;;;;;;;15.20;9.43;;;9.00;99.90;;;;;;5104055;28;20099;-78
2022/01/02 11:03:44;;;;;;;18.55;10.93;;;9.00;99.90;;;;;;5104507;28;20310;-78
2022/01/02 11:06:13;;;;;;;16.65;10.35;;;9.10;99.90;;;;;;5105143;28;20091;-78
2022/01/02 11:08:44;;;;;;;14.13;8.35;;;9.30;99.90;;;;;;5104773;28;20360;-80
2022/01/02 11:11:10;;;;;;;12.98;7.63;;;9.50;99.90;;;;;;5104792;28;20345;-78
2022/01/02 11:13:36;;;;;;;10.73;6.88;;;9.60;99.90;;;;;;5105213;28;20052;-78
2022/01/02 11:16:03;;;;;;;9.63;5.53;;;9.70;99.90;;;;;;5085822;28;20043;-79
2022/01/02 11:18:34;;;;;;;10.68;5.65;;;9.60;99.90;;;;;;5104687;28;20027;-78
2022/01/02 11:21:02;;;;;;;9.48;5.90;;;9.60;99.90;;;;;;5104329;28;20170;-78
2022/01/02 11:23:52;;;;;;;10.98;6.50;;;9.60;99.90;;;;;;5104859;28;20077;-78
2022/01/02 11:26:37;;;;;;;13.52;7.82;;;9.70;99.90;;;;;;5086125;28;20040;-78
2022/01/02 11:29:03;;;;;;;20.75;10.95;;;9.90;99.90;;;;;;5104534;28;20056;-79
2022/01/02 11:31:34;;;;;;;23.58;12.80;;;10.00;99.90;;;;;;5104026;28;20044;-78
2022/01/02 11:34:01;;;;;;;24.77;13.80;;;10.10;99.90;;;;;;5104243;28;20036;-78
2022/01/02 11:36:33;;;;;;;22.85;13.60;;;10.20;99.90;;;;;;5086477;28;20043;-78
2022/01/02 11:39:01;;;;;;;19.05;10.18;;;10.10;99.90;;;;;;5103865;28;20271;-76
2022/01/02 11:41:53;;;;;;;18.42;11.02;;;9.90;99.90;;;;;;5104603;28;20028;-77
2022/01/02 11:44:20;;;;;;;23.17;13.55;;;9.90;99.90;;;;;;5100244;28;20059;-80
2022/01/02 11:46:57;;;;;;;27.40;14.77;;;9.90;99.90;;;;;;5084917;28;20043;-79
2022/01/02 11:49:41;;;;;;;29.63;16.00;;;9.90;99.90;;;;;;5104271;28;20032;-80
2022/01/02 11:52:11;;;;;;;27.98;16.35;;;9.90;99.90;;;;;;5103412;28;20100;-77
2022/01/02 11:54:46;;;;;;;28.48;15.80;;;10.00;99.90;;;;;;5104145;28;20214;-77
2022/01/02 11:57:12;;;;;;;28.48;15.15;;;10.10;99.90;;;;;;5086054;28;20024;-77
2022/01/02 11:59:42;;;;;;;21.73;11.70;;;10.10;99.90;;;;;;5085634;28;20081;-76
2022/01/02 12:02:26;;;;;;;16.35;9.52;;;10.20;99.90;;;;;;5103281;28;20038;-78
2022/01/02 12:07:42;;;;;;;8.93;5.20;;;10.40;99.90;;;;;;5103700;28;20035;-78
2022/01/02 12:10:16;;;;;;;11.73;6.43;;;10.50;99.90;;;;;;5085616;28;20138;-78
2022/01/02 12:13:06;;;;;;;15.18;9.13;;;10.30;99.90;;;;;;5103747;28;20302;-78
2022/01/02 12:15:34;;;;;;;17.52;8.82;;;10.50;99.90;;;;;;5083150;28;20051;-78
2022/01/02 12:18:09;;;;;;;20.63;12.48;;;10.70;99.90;;;;;;5085209;28;20023;-78
2022/01/02 12:20:50;;;;;;;17.80;10.60;;;10.80;99.90;;;;;;5103596;28;20028;-78
2022/01/02 12:23:44;;;;;;;16.13;9.02;;;11.00;99.90;;;;;;5103892;28;20226;-79
2022/01/02 12:26:15;;;;;;;9.93;5.97;;;11.80;99.90;;;;;;5095191;28;20048;-78
2022/01/02 12:29:02;;;;;;;8.55;5.18;;;12.20;99.90;;;;;;5103596;28;20250;-78
2022/01/02 12:31:42;;;;;;;6.65;4.57;;;12.60;99.90;;;;;;5083172;28;20033;-76
2022/01/02 12:34:19;;;;;;;8.50;4.80;;;14.10;99.90;;;;;;5084654;28;20039;-79
2022/01/02 12:36:47;;;;;;;7.25;4.53;;;14.90;99.90;;;;;;5085699;28;20036;-79
2022/01/02 12:39:14;;;;;;;7.55;4.32;;;15.70;99.90;;;;;;5103349;28;20038;-79
2022/01/02 12:41:44;;;;;;;8.52;4.70;;;16.50;99.90;;;;;;5086063;28;20052;-79
2022/01/02 12:44:15;;;;;;;7.93;3.75;;;17.40;99.90;;;;;;5104012;28;20364;-79
2022/01/02 12:46:47;;;;;;;9.05;4.00;;;18.00;99.20;;;;;;5103502;28;20095;-80
2022/01/02 12:49:19;;;;;;;6.25;4.15;;;17.50;99.10;;;;;;5084846;28;20099;-79
2022/01/02 12:51:46;;;;;;;5.90;3.50;;;17.20;99.80;;;;;;5103651;28;20059;-79
2022/01/02 12:54:18;;;;;;;5.97;3.03;;;17.50;99.40;;;;;;5103503;28;20313;-78
2022/01/02 12:56:50;;;;;;;3.53;1.95;;;18.10;97.90;;;;;;5103503;28;20047;-78
2022/01/02 12:59:40;;;;;;;2.42;1.33;;;18.10;95.50;;;;;;5085630;28;20032;-78
2022/01/02 13:02:07;;;;;;;4.30;1.08;;;18.00;94.70;;;;;;5101738;28;20126;-78
2022/01/02 13:04:38;;;;;;;3.30;1.08;;;18.60;94.60;;;;;;5098451;28;20117;-77
2022/01/02 13:07:14;;;;;;;2.33;0.80;;;18.30;94.10;;;;;;5101951;28;20036;-78
2022/01/02 13:09:43;;;;;;;2.85;0.93;;;18.40;93.50;;;;;;5084332;28;20040;-77
2022/01/02 13:12:16;;;;;;;2.58;1.20;;;18.40;93.50;;;;;;5101953;28;20083;-79
2022/01/02 13:14:48;;;;;;;1.83;0.70;;;18.20;93.50;;;;;;5102226;28;20214;-78